sensor_id;sensor_type;location;lat;lon;timestamp;P1;durP1;ratioP1;P2;durP2;ratioP2
76023;SDS011;64719;52.124;6.226;2023-06-14T00:00:50;4.85;;;2.33;;
76023;SDS011;64719;52.124;6.226;2023-06-14T00:03:18;5.60;;;2.97;;
76023;SDS011;64719;52.124;6.226;2023-06-14T00:05:47;7.18;;;2.80;;
76023;SDS011;64719;52.124;6.226;2023-06-14T00:08:13;4.10;;;2.40;;
76023;SDS011;64719;52.124;6.226;2023-06-14T00:10:42;5.72;;;2.30;;
76023;SDS011;64719;52.124;6.226;2023-06-14T00:13:09;4.15;;;2.40;;
76023;SDS011;64719;52.124;6.226;2023-06-14T00:15:36;3.22;;;2.40;;
76023;SDS011;64719;52.124;6.226;2023-06-14T00:18:03;4.05;;;2.38;;
76023;SDS011;64719;52.124;6.226;2023-06-14T00:20:31;5.90;;;2.60;;
76023;SDS011;64719;52.124;6.226;2023-06-14T00:22:58;4.78;;;2.78;;
76023;SDS011;64719;52.124;6.226;2023-06-14T00:25:25;5.07;;;2.33;;
76023;SDS011;64719;52.124;6.226;2023-06-14T00:27:53;6.07;;;2.67;;
76023;SDS011;64719;52.124;6.226;2023-06-14T00:30:20;11.35;;;2.50;;
76023;SDS011;64719;52.124;6.226;2023-06-14T00:32:47;6.63;;;2.30;;
76023;SDS011;64719;52.124;6.226;2023-06-14T00:35:14;8.57;;;2.45;;
76023;SDS011;64719;52.124;6.226;2023-06-14T00:37:41;4.68;;;2.50;;
76023;SDS011;64719;52.124;6.226;2023-06-14T00:40:08;5.07;;;2.15;;
76023;SDS011;64719;52.124;6.226;2023-06-14T00:42:34;4.97;;;2.30;;
76023;SDS011;64719;52.124;6.226;2023-06-14T00:45:03;5.03;;;2.28;;
76023;SDS011;64719;52.124;6.226;2023-06-14T00:47:30;3.75;;;2.15;;
76023;SDS011;64719;52.124;6.226;2023-06-14T00:49:56;5.57;;;2.60;;
76023;SDS011;64719;52.124;6.226;2023-06-14T00:52:24;5.20;;;2.47;;
76023;SDS011;64719;52.124;6.226;2023-06-14T00:54:51;4.85;;;2.53;;
76023;SDS011;64719;52.124;6.226;2023-06-14T00:57:17;4.45;;;2.22;;
76023;SDS011;64719;52.124;6.226;2023-06-14T00:59:46;6.53;;;2.85;;
76023;SDS011;64719;52.124;6.226;2023-06-14T01:04:43;3.65;;;2.30;;
76023;SDS011;64719;52.124;6.226;2023-06-14T01:07:15;5.60;;;2.47;;
76023;SDS011;64719;52.124;6.226;2023-06-14T01:09:53;4.43;;;2.30;;
76023;SDS011;64719;52.124;6.226;2023-06-14T01:12:31;6.70;;;2.40;;
76023;SDS011;64719;52.124;6.226;2023-06-14T01:15:03;5.25;;;2.17;;
76023;SDS011;64719;52.124;6.226;2023-06-14T01:17:32;5.70;;;2.10;;
76023;SDS011;64719;52.124;6.226;2023-06-14T01:20:00;4.63;;;2.28;;
76023;SDS011;64719;52.124;6.226;2023-06-14T01:22:27;6.68;;;2.50;;
76023;SDS011;64719;52.124;6.226;2023-06-14T01:24:56;4.45;;;2.40;;
76023;SDS011;64719;52.124;6.226;2023-06-14T01:27:23;6.40;;;2.45;;
76023;SDS011;64719;52.124;6.226;2023-06-14T01:29:53;4.72;;;2.15;;
76023;SDS011;64719;52.124;6.226;2023-06-14T01:32:21;5.43;;;2.50;;
76023;SDS011;64719;52.124;6.226;2023-06-14T01:37:16;3.75;;;2.50;;
76023;SDS011;64719;52.124;6.226;2023-06-14T01:39:43;5.70;;;2.38;;
76023;SDS011;64719;52.124;6.226;2023-06-14T01:42:13;5.75;;;2.35;;
76023;SDS011;64719;52.124;6.226;2023-06-14T01:44:41;5.32;;;2.22;;
76023;SDS011;64719;52.124;6.226;2023-06-14T01:47:09;7.25;;;2.33;;
76023;SDS011;64719;52.124;6.226;2023-06-14T01:49:36;4.47;;;2.00;;
76023;SDS011;64719;52.124;6.226;2023-06-14T01:52:02;5.22;;;2.55;;
76023;SDS011;64719;52.124;6.226;2023-06-14T01:54:29;4.55;;;2.30;;
76023;SDS011;64719;52.124;6.226;2023-06-14T01:56:56;4.68;;;2.28;;
76023;SDS011;64719;52.124;6.226;2023-06-14T01:59:24;4.47;;;2.30;;
76023;SDS011;64719;52.124;6.226;2023-06-14T02:01:50;5.35;;;2.33;;
76023;SDS011;64719;52.124;6.226;2023-06-14T02:04:17;6.03;;;2.47;;
76023;SDS011;64719;52.124;6.226;2023-06-14T02:06:43;5.07;;;2.10;;
76023;SDS011;64719;52.124;6.226;2023-06-14T02:09:10;4.80;;;2.60;;
76023;SDS011;64719;52.124;6.226;2023-06-14T02:11:36;4.28;;;2.78;;
76023;SDS011;64719;52.124;6.226;2023-06-14T02:14:03;6.00;;;2.40;;
76023;SDS011;64719;52.124;6.226;2023-06-14T02:16:30;6.55;;;2.30;;
76023;SDS011;64719;52.124;6.226;2023-06-14T02:19:00;5.00;;;2.70;;
76023;SDS011;64719;52.124;6.226;2023-06-14T02:21:27;6.53;;;2.85;;
76023;SDS011;64719;52.124;6.226;2023-06-14T02:23:53;3.90;;;2.33;;
76023;SDS011;64719;52.124;6.226;2023-06-14T02:26:20;5.72;;;2.50;;
76023;SDS011;64719;52.124;6.226;2023-06-14T02:28:47;3.58;;;2.30;;
76023;SDS011;64719;52.124;6.226;2023-06-14T02:31:14;5.57;;;2.45;;
76023;SDS011;64719;52.124;6.226;2023-06-14T02:33:42;4.95;;;2.30;;
76023;SDS011;64719;52.124;6.226;2023-06-14T02:36:09;6.22;;;2.53;;
76023;SDS011;64719;52.124;6.226;2023-06-14T02:38:35;7.00;;;2.33;;
76023;SDS011;64719;52.124;6.226;2023-06-14T02:41:03;5.82;;;2.75;;
76023;SDS011;64719;52.124;6.226;2023-06-14T02:43:31;8.88;;;2.83;;
76023;SDS011;64719;52.124;6.226;2023-06-14T02:45:57;3.83;;;2.40;;
76023;SDS011;64719;52.124;6.226;2023-06-14T02:48:24;7.47;;;2.50;;
76023;SDS011;64719;52.124;6.226;2023-06-14T02:50:51;6.68;;;3.00;;
76023;SDS011;64719;52.124;6.226;2023-06-14T02:53:18;3.65;;;2.30;;
76023;SDS011;64719;52.124;6.226;2023-06-14T02:55:45;5.85;;;2.10;;
76023;SDS011;64719;52.124;6.226;2023-06-14T02:58:11;6.65;;;2.58;;
76023;SDS011;64719;52.124;6.226;2023-06-14T03:00:38;8.38;;;2.63;;
76023;SDS011;64719;52.124;6.226;2023-06-14T03:03:05;4.13;;;2.58;;
76023;SDS011;64719;52.124;6.226;2023-06-14T03:05:37;4.13;;;2.60;;
76023;SDS011;64719;52.124;6.226;2023-06-14T03:08:07;6.38;;;2.40;;
76023;SDS011;64719;52.124;6.226;2023-06-14T03:10:33;5.15;;;2.17;;
76023;SDS011;64719;52.124;6.226;2023-06-14T03:13:01;3.30;;;2.03;;
76023;SDS011;64719;52.124;6.226;2023-06-14T03:15:27;7.00;;;2.45;;
76023;SDS011;64719;52.124;6.226;2023-06-14T03:17:54;6.32;;;2.22;;
76023;SDS011;64719;52.124;6.226;2023-06-14T03:20:20;4.00;;;2.35;;
76023;SDS011;64719;52.124;6.226;2023-06-14T03:22:47;6.45;;;2.38;;
76023;SDS011;64719;52.124;6.226;2023-06-14T03:25:15;5.53;;;2.10;;
76023;SDS011;64719;52.124;6.226;2023-06-14T03:27:42;5.20;;;2.28;;
76023;SDS011;64719;52.124;6.226;2023-06-14T03:30:09;3.22;;;1.95;;
76023;SDS011;64719;52.124;6.226;2023-06-14T03:32:35;6.10;;;2.20;;
76023;SDS011;64719;52.124;6.226;2023-06-14T03:35:02;4.47;;;2.42;;
76023;SDS011;64719;52.124;6.226;2023-06-14T03:37:29;5.50;;;2.33;;
76023;SDS011;64719;52.124;6.226;2023-06-14T03:39:56;6.43;;;2.50;;
76023;SDS011;64719;52.124;6.226;2023-06-14T03:42:23;5.38;;;2.83;;
76023;SDS011;64719;52.124;6.226;2023-06-14T03:44:50;4.90;;;2.30;;
76023;SDS011;64719;52.124;6.226;2023-06-14T03:47:16;5.00;;;2.58;;
76023;SDS011;64719;52.124;6.226;2023-06-14T03:49:43;3.45;;;2.20;;
76023;SDS011;64719;52.124;6.226;2023-06-14T03:52:09;4.30;;;2.33;;
76023;SDS011;64719;52.124;6.226;2023-06-14T03:54:36;7.00;;;3.13;;
76023;SDS011;64719;52.124;6.226;2023-06-14T03:57:03;4.82;;;2.50;;
76023;SDS011;64719;52.124;6.226;2023-06-14T03:59:31;4.35;;;2.60;;
76023;SDS011;64719;52.124;6.226;2023-06-14T04:01:58;3.70;;;2.30;;
76023;SDS011;64719;52.124;6.226;2023-06-14T04:04:24;6.38;;;2.42;;
76023;SDS011;64719;52.124;6.226;2023-06-14T04:06:53;5.93;;;2.33;;
76023;SDS011;64719;52.124;6.226;2023-06-14T04:09:20;5.75;;;2.47;;
76023;SDS011;64719;52.124;6.226;2023-06-14T04:11:47;4.00;;;2.35;;
76023;SDS011;64719;52.124;6.226;2023-06-14T04:14:13;6.28;;;2.60;;
76023;SDS011;64719;52.124;6.226;2023-06-14T04:16:41;5.70;;;2.60;;
76023;SDS011;64719;52.124;6.226;2023-06-14T04:21:34;5.22;;;2.45;;
76023;SDS011;64719;52.124;6.226;2023-06-14T04:24:01;4.53;;;2.53;;
76023;SDS011;64719;52.124;6.226;2023-06-14T04:26:28;7.65;;;2.30;;
76023;SDS011;64719;52.124;6.226;2023-06-14T04:28:58;6.88;;;2.40;;
76023;SDS011;64719;52.124;6.226;2023-06-14T04:31:26;5.07;;;2.47;;
76023;SDS011;64719;52.124;6.226;2023-06-14T04:36:22;8.00;;;2.30;;
76023;SDS011;64719;52.124;6.226;2023-06-14T04:38:48;4.47;;;2.28;;
76023;SDS011;64719;52.124;6.226;2023-06-14T04:41:19;5.93;;;2.70;;
76023;SDS011;64719;52.124;6.226;2023-06-14T04:43:45;3.67;;;2.45;;
76023;SDS011;64719;52.124;6.226;2023-06-14T04:46:13;3.08;;;2.35;;
76023;SDS011;64719;52.124;6.226;2023-06-14T04:48:40;6.63;;;2.15;;
76023;SDS011;64719;52.124;6.226;2023-06-14T04:51:09;7.88;;;2.72;;
76023;SDS011;64719;52.124;6.226;2023-06-14T04:53:35;10.70;;;2.70;;
76023;SDS011;64719;52.124;6.226;2023-06-14T04:56:02;5.07;;;2.47;;
76023;SDS011;64719;52.124;6.226;2023-06-14T04:58:29;6.43;;;2.63;;
76023;SDS011;64719;52.124;6.226;2023-06-14T05:00:56;4.32;;;2.50;;
76023;SDS011;64719;52.124;6.226;2023-06-14T05:03:24;6.20;;;2.53;;
76023;SDS011;64719;52.124;6.226;2023-06-14T05:05:51;5.65;;;2.40;;
76023;SDS011;64719;52.124;6.226;2023-06-14T05:08:20;5.57;;;2.50;;
76023;SDS011;64719;52.124;6.226;2023-06-14T05:10:48;5.45;;;2.47;;
76023;SDS011;64719;52.124;6.226;2023-06-14T05:13:14;5.40;;;2.88;;
76023;SDS011;64719;52.124;6.226;2023-06-14T05:15:41;6.35;;;2.40;;
76023;SDS011;64719;52.124;6.226;2023-06-14T05:18:08;5.60;;;2.40;;
76023;SDS011;64719;52.124;6.226;2023-06-14T05:20:35;6.15;;;2.33;;
76023;SDS011;64719;52.124;6.226;2023-06-14T05:23:02;3.67;;;2.30;;
76023;SDS011;64719;52.124;6.226;2023-06-14T05:25:30;4.95;;;2.20;;
76023;SDS011;64719;52.124;6.226;2023-06-14T05:27:57;10.48;;;3.10;;
76023;SDS011;64719;52.124;6.226;2023-06-14T05:30:23;4.25;;;2.25;;
76023;SDS011;64719;52.124;6.226;2023-06-14T05:32:50;10.65;;;2.80;;
76023;SDS011;64719;52.124;6.226;2023-06-14T05:35:17;5.25;;;2.45;;
76023;SDS011;64719;52.124;6.226;2023-06-14T05:37:44;4.60;;;2.33;;
76023;SDS011;64719;52.124;6.226;2023-06-14T05:40:11;5.47;;;2.70;;
76023;SDS011;64719;52.124;6.226;2023-06-14T05:42:39;2.83;;;2.13;;
76023;SDS011;64719;52.124;6.226;2023-06-14T05:45:06;3.78;;;2.67;;
76023;SDS011;64719;52.124;6.226;2023-06-14T05:47:33;3.78;;;2.13;;
76023;SDS011;64719;52.124;6.226;2023-06-14T05:49:59;5.97;;;2.70;;
76023;SDS011;64719;52.124;6.226;2023-06-14T05:52:26;4.65;;;2.35;;
76023;SDS011;64719;52.124;6.226;2023-06-14T05:54:53;4.47;;;2.33;;
76023;SDS011;64719;52.124;6.226;2023-06-14T05:57:19;6.50;;;2.75;;
76023;SDS011;64719;52.124;6.226;2023-06-14T05:59:47;3.85;;;2.50;;
76023;SDS011;64719;52.124;6.226;2023-06-14T06:02:13;6.05;;;2.50;;
76023;SDS011;64719;52.124;6.226;2023-06-14T06:04:40;3.88;;;2.30;;
76023;SDS011;64719;52.124;6.226;2023-06-14T06:07:07;4.25;;;2.30;;
76023;SDS011;64719;52.124;6.226;2023-06-14T06:09:33;3.03;;;2.20;;
76023;SDS011;64719;52.124;6.226;2023-06-14T06:11:59;4.10;;;2.17;;
76023;SDS011;64719;52.124;6.226;2023-06-14T06:14:26;3.47;;;2.42;;
76023;SDS011;64719;52.124;6.226;2023-06-14T06:16:54;6.68;;;2.22;;
76023;SDS011;64719;52.124;6.226;2023-06-14T06:19:21;4.03;;;2.15;;
76023;SDS011;64719;52.124;6.226;2023-06-14T06:21:47;3.80;;;2.20;;
76023;SDS011;64719;52.124;6.226;2023-06-14T06:24:14;6.75;;;2.10;;
76023;SDS011;64719;52.124;6.226;2023-06-14T06:26:40;5.57;;;2.50;;
76023;SDS011;64719;52.124;6.226;2023-06-14T06:29:07;3.85;;;2.10;;
76023;SDS011;64719;52.124;6.226;2023-06-14T06:31:33;4.97;;;2.28;;
76023;SDS011;64719;52.124;6.226;2023-06-14T06:34:02;4.95;;;1.98;;
76023;SDS011;64719;52.124;6.226;2023-06-14T06:36:28;4.35;;;2.00;;
76023;SDS011;64719;52.124;6.226;2023-06-14T06:38:55;5.88;;;2.25;;
76023;SDS011;64719;52.124;6.226;2023-06-14T06:41:21;3.13;;;1.98;;
76023;SDS011;64719;52.124;6.226;2023-06-14T06:43:48;4.82;;;2.28;;
76023;SDS011;64719;52.124;6.226;2023-06-14T06:46:15;5.63;;;2.10;;
76023;SDS011;64719;52.124;6.226;2023-06-14T06:48:43;5.18;;;2.20;;
76023;SDS011;64719;52.124;6.226;2023-06-14T06:51:11;2.78;;;1.92;;
76023;SDS011;64719;52.124;6.226;2023-06-14T06:53:38;4.35;;;1.85;;
76023;SDS011;64719;52.124;6.226;2023-06-14T06:56:04;4.10;;;2.10;;
76023;SDS011;64719;52.124;6.226;2023-06-14T06:58:31;2.15;;;1.73;;
76023;SDS011;64719;52.124;6.226;2023-06-14T07:00:57;5.47;;;1.95;;
76023;SDS011;64719;52.124;6.226;2023-06-14T07:03:24;4.75;;;1.70;;
76023;SDS011;64719;52.124;6.226;2023-06-14T07:05:50;4.53;;;2.00;;
76023;SDS011;64719;52.124;6.226;2023-06-14T07:08:18;2.90;;;1.55;;
76023;SDS011;64719;52.124;6.226;2023-06-14T07:10:45;4.63;;;1.88;;
76023;SDS011;64719;52.124;6.226;2023-06-14T07:13:11;5.22;;;1.77;;
76023;SDS011;64719;52.124;6.226;2023-06-14T07:15:38;4.63;;;1.75;;
76023;SDS011;64719;52.124;6.226;2023-06-14T07:18:05;3.35;;;1.60;;
76023;SDS011;64719;52.124;6.226;2023-06-14T07:20:32;10.32;;;1.95;;
76023;SDS011;64719;52.124;6.226;2023-06-14T07:22:58;3.20;;;2.00;;
76023;SDS011;64719;52.124;6.226;2023-06-14T07:25:26;3.85;;;1.90;;
76023;SDS011;64719;52.124;6.226;2023-06-14T07:27:53;4.43;;;1.73;;
76023;SDS011;64719;52.124;6.226;2023-06-14T07:30:19;3.35;;;1.95;;
76023;SDS011;64719;52.124;6.226;2023-06-14T07:32:50;3.60;;;2.10;;
76023;SDS011;64719;52.124;6.226;2023-06-14T07:35:17;4.70;;;1.98;;
76023;SDS011;64719;52.124;6.226;2023-06-14T07:37:43;3.88;;;1.98;;
76023;SDS011;64719;52.124;6.226;2023-06-14T07:40:12;4.28;;;2.22;;
76023;SDS011;64719;52.124;6.226;2023-06-14T07:42:41;4.03;;;1.75;;
76023;SDS011;64719;52.124;6.226;2023-06-14T07:45:07;3.28;;;2.10;;
76023;SDS011;64719;52.124;6.226;2023-06-14T07:47:35;2.78;;;1.80;;
76023;SDS011;64719;52.124;6.226;2023-06-14T07:50:01;3.83;;;1.80;;
76023;SDS011;64719;52.124;6.226;2023-06-14T07:52:28;2.70;;;1.73;;
76023;SDS011;64719;52.124;6.226;2023-06-14T07:54:55;3.10;;;1.63;;
76023;SDS011;64719;52.124;6.226;2023-06-14T07:57:23;5.28;;;2.00;;
76023;SDS011;64719;52.124;6.226;2023-06-14T07:59:51;2.25;;;1.60;;
76023;SDS011;64719;52.124;6.226;2023-06-14T08:02:17;6.63;;;2.00;;
76023;SDS011;64719;52.124;6.226;2023-06-14T08:04:44;3.97;;;1.80;;
76023;SDS011;64719;52.124;6.226;2023-06-14T08:07:11;4.82;;;1.85;;
76023;SDS011;64719;52.124;6.226;2023-06-14T08:09:38;4.30;;;1.70;;
76023;SDS011;64719;52.124;6.226;2023-06-14T08:12:05;3.13;;;1.55;;
76023;SDS011;64719;52.124;6.226;2023-06-14T08:14:34;3.78;;;1.40;;
76023;SDS011;64719;52.124;6.226;2023-06-14T08:17:03;2.65;;;1.70;;
76023;SDS011;64719;52.124;6.226;2023-06-14T08:19:30;4.85;;;1.80;;
76023;SDS011;64719;52.124;6.226;2023-06-14T08:21:56;3.92;;;1.77;;
76023;SDS011;64719;52.124;6.226;2023-06-14T08:24:23;4.43;;;1.50;;
76023;SDS011;64719;52.124;6.226;2023-06-14T08:29:16;4.50;;;1.80;;
76023;SDS011;64719;52.124;6.226;2023-06-14T08:31:43;4.15;;;1.80;;
76023;SDS011;64719;52.124;6.226;2023-06-14T08:34:11;2.75;;;1.45;;
76023;SDS011;64719;52.124;6.226;2023-06-14T08:36:37;3.67;;;1.67;;
76023;SDS011;64719;52.124;6.226;2023-06-14T08:39:04;2.85;;;1.50;;
76023;SDS011;64719;52.124;6.226;2023-06-14T08:41:30;4.03;;;1.50;;
76023;SDS011;64719;52.124;6.226;2023-06-14T08:43:58;5.18;;;1.60;;
76023;SDS011;64719;52.124;6.226;2023-06-14T08:46:25;3.08;;;1.58;;
76023;SDS011;64719;52.124;6.226;2023-06-14T08:48:54;3.17;;;1.35;;
76023;SDS011;64719;52.124;6.226;2023-06-14T08:51:24;4.72;;;1.75;;
76023;SDS011;64719;52.124;6.226;2023-06-14T08:53:52;4.65;;;1.50;;
76023;SDS011;64719;52.124;6.226;2023-06-14T08:56:23;4.25;;;1.58;;
76023;SDS011;64719;52.124;6.226;2023-06-14T08:58:52;3.65;;;1.75;;
76023;SDS011;64719;52.124;6.226;2023-06-14T09:01:19;2.42;;;1.60;;
76023;SDS011;64719;52.124;6.226;2023-06-14T09:03:46;3.28;;;1.60;;
76023;SDS011;64719;52.124;6.226;2023-06-14T09:06:14;2.53;;;1.75;;
76023;SDS011;64719;52.124;6.226;2023-06-14T09:08:43;3.60;;;1.60;;
76023;SDS011;64719;52.124;6.226;2023-06-14T09:11:11;2.55;;;1.65;;
76023;SDS011;64719;52.124;6.226;2023-06-14T09:13:38;3.30;;;1.35;;
76023;SDS011;64719;52.124;6.226;2023-06-14T09:18:35;2.67;;;1.55;;
76023;SDS011;64719;52.124;6.226;2023-06-14T09:21:03;2.00;;;1.42;;
76023;SDS011;64719;52.124;6.226;2023-06-14T09:23:33;1.92;;;1.25;;
76023;SDS011;64719;52.124;6.226;2023-06-14T09:26:03;5.30;;;1.48;;
76023;SDS011;64719;52.124;6.226;2023-06-14T09:28:32;2.58;;;1.50;;
76023;SDS011;64719;52.124;6.226;2023-06-14T09:30:59;3.28;;;1.63;;
76023;SDS011;64719;52.124;6.226;2023-06-14T09:33:26;2.90;;;1.75;;
76023;SDS011;64719;52.124;6.226;2023-06-14T09:35:53;4.43;;;1.50;;
76023;SDS011;64719;52.124;6.226;2023-06-14T09:38:20;3.85;;;1.50;;
76023;SDS011;64719;52.124;6.226;2023-06-14T09:40:47;2.47;;;1.63;;
76023;SDS011;64719;52.124;6.226;2023-06-14T09:43:14;3.22;;;1.55;;
76023;SDS011;64719;52.124;6.226;2023-06-14T09:45:41;4.15;;;1.80;;
76023;SDS011;64719;52.124;6.226;2023-06-14T09:48:11;4.00;;;1.38;;
76023;SDS011;64719;52.124;6.226;2023-06-14T09:50:42;2.45;;;1.30;;
76023;SDS011;64719;52.124;6.226;2023-06-14T09:53:11;2.67;;;1.30;;
76023;SDS011;64719;52.124;6.226;2023-06-14T09:55:38;3.05;;;1.30;;
76023;SDS011;64719;52.124;6.226;2023-06-14T09:58:07;4.10;;;1.50;;
76023;SDS011;64719;52.124;6.226;2023-06-14T10:00:38;3.33;;;1.48;;
76023;SDS011;64719;52.124;6.226;2023-06-14T10:03:06;2.50;;;1.30;;
76023;SDS011;64719;52.124;6.226;2023-06-14T10:05:38;2.53;;;1.30;;
76023;SDS011;64719;52.124;6.226;2023-06-14T10:08:08;2.45;;;1.20;;
76023;SDS011;64719;52.124;6.226;2023-06-14T10:10:38;1.65;;;1.20;;
76023;SDS011;64719;52.124;6.226;2023-06-14T10:13:05;3.00;;;1.40;;
76023;SDS011;64719;52.124;6.226;2023-06-14T10:15:35;3.10;;;1.60;;
76023;SDS011;64719;52.124;6.226;2023-06-14T10:18:14;3.17;;;1.60;;
76023;SDS011;64719;52.124;6.226;2023-06-14T10:20:49;2.78;;;1.67;;
76023;SDS011;64719;52.124;6.226;2023-06-14T10:23:22;6.38;;;1.70;;
76023;SDS011;64719;52.124;6.226;2023-06-14T10:25:50;2.60;;;1.38;;
76023;SDS011;64719;52.124;6.226;2023-06-14T10:28:21;3.42;;;1.40;;
76023;SDS011;64719;52.124;6.226;2023-06-14T10:31:02;2.00;;;1.30;;
76023;SDS011;64719;52.124;6.226;2023-06-14T10:33:30;2.72;;;1.50;;
76023;SDS011;64719;52.124;6.226;2023-06-14T10:38:59;2.38;;;1.55;;
76023;SDS011;64719;52.124;6.226;2023-06-14T10:41:27;3.22;;;1.45;;
76023;SDS011;64719;52.124;6.226;2023-06-14T10:44:10;3.45;;;1.45;;
76023;SDS011;64719;52.124;6.226;2023-06-14T10:46:58;2.55;;;1.50;;
76023;SDS011;64719;52.124;6.226;2023-06-14T10:49:36;5.00;;;1.65;;
76023;SDS011;64719;52.124;6.226;2023-06-14T10:52:07;5.25;;;1.65;;
76023;SDS011;64719;52.124;6.226;2023-06-14T10:54:36;3.05;;;1.90;;
76023;SDS011;64719;52.124;6.226;2023-06-14T10:57:03;2.67;;;1.50;;
76023;SDS011;64719;52.124;6.226;2023-06-14T10:59:32;4.00;;;1.50;;
76023;SDS011;64719;52.124;6.226;2023-06-14T11:02:10;1.75;;;1.42;;
76023;SDS011;64719;52.124;6.226;2023-06-14T11:04:53;3.90;;;1.63;;
76023;SDS011;64719;52.124;6.226;2023-06-14T11:07:26;2.88;;;1.63;;
76023;SDS011;64719;52.124;6.226;2023-06-14T11:10:05;4.47;;;2.00;;
76023;SDS011;64719;52.124;6.226;2023-06-14T11:12:41;2.05;;;1.40;;
76023;SDS011;64719;52.124;6.226;2023-06-14T11:15:13;3.38;;;1.40;;
76023;SDS011;64719;52.124;6.226;2023-06-14T11:17:45;2.90;;;1.65;;
76023;SDS011;64719;52.124;6.226;2023-06-14T11:20:18;3.78;;;1.95;;
76023;SDS011;64719;52.124;6.226;2023-06-14T11:22:46;3.38;;;1.80;;
76023;SDS011;64719;52.124;6.226;2023-06-14T11:25:13;4.43;;;2.00;;
76023;SDS011;64719;52.124;6.226;2023-06-14T11:27:41;4.00;;;1.38;;
76023;SDS011;64719;52.124;6.226;2023-06-14T11:30:08;4.68;;;1.48;;
76023;SDS011;64719;52.124;6.226;2023-06-14T11:32:36;3.90;;;1.83;;
76023;SDS011;64719;52.124;6.226;2023-06-14T11:35:05;2.00;;;1.50;;
76023;SDS011;64719;52.124;6.226;2023-06-14T11:37:33;2.80;;;1.40;;
76023;SDS011;64719;52.124;6.226;2023-06-14T11:40:00;3.30;;;1.45;;
76023;SDS011;64719;52.124;6.226;2023-06-14T11:42:28;3.20;;;1.40;;
76023;SDS011;64719;52.124;6.226;2023-06-14T11:44:55;3.30;;;1.65;;
76023;SDS011;64719;52.124;6.226;2023-06-14T11:47:22;4.13;;;1.90;;
76023;SDS011;64719;52.124;6.226;2023-06-14T11:49:48;3.28;;;1.30;;
76023;SDS011;64719;52.124;6.226;2023-06-14T11:52:18;2.00;;;1.40;;
76023;SDS011;64719;52.124;6.226;2023-06-14T11:54:44;2.67;;;1.50;;
76023;SDS011;64719;52.124;6.226;2023-06-14T11:57:14;5.80;;;1.70;;
76023;SDS011;64719;52.124;6.226;2023-06-14T11:59:40;2.38;;;1.42;;
76023;SDS011;64719;52.124;6.226;2023-06-14T12:02:09;2.67;;;1.38;;
76023;SDS011;64719;52.124;6.226;2023-06-14T12:07:08;3.67;;;1.48;;
76023;SDS011;64719;52.124;6.226;2023-06-14T12:09:41;4.47;;;1.40;;
76023;SDS011;64719;52.124;6.226;2023-06-14T12:12:09;3.08;;;1.30;;
76023;SDS011;64719;52.124;6.226;2023-06-14T12:14:36;3.20;;;1.30;;
76023;SDS011;64719;52.124;6.226;2023-06-14T12:17:06;1.73;;;1.17;;
76023;SDS011;64719;52.124;6.226;2023-06-14T12:19:33;3.85;;;1.10;;
76023;SDS011;64719;52.124;6.226;2023-06-14T12:22:08;1.88;;;1.10;;
76023;SDS011;64719;52.124;6.226;2023-06-14T12:24:35;2.90;;;1.17;;
76023;SDS011;64719;52.124;6.226;2023-06-14T12:27:04;3.30;;;1.10;;
76023;SDS011;64719;52.124;6.226;2023-06-14T12:29:32;2.67;;;1.23;;
76023;SDS011;64719;52.124;6.226;2023-06-14T12:31:58;3.05;;;1.10;;
76023;SDS011;64719;52.124;6.226;2023-06-14T12:34:25;3.83;;;1.38;;
76023;SDS011;64719;52.124;6.226;2023-06-14T12:36:52;2.72;;;1.30;;
76023;SDS011;64719;52.124;6.226;2023-06-14T12:39:19;2.22;;;1.00;;
76023;SDS011;64719;52.124;6.226;2023-06-14T12:41:46;2.60;;;1.30;;
76023;SDS011;64719;52.124;6.226;2023-06-14T12:44:15;1.95;;;1.20;;
76023;SDS011;64719;52.124;6.226;2023-06-14T12:46:41;2.63;;;1.15;;
76023;SDS011;64719;52.124;6.226;2023-06-14T12:51:35;2.53;;;1.30;;
76023;SDS011;64719;52.124;6.226;2023-06-14T12:54:02;2.90;;;1.10;;
76023;SDS011;64719;52.124;6.226;2023-06-14T12:56:28;2.08;;;1.27;;
76023;SDS011;64719;52.124;6.226;2023-06-14T12:58:55;3.95;;;1.25;;
76023;SDS011;64719;52.124;6.226;2023-06-14T13:01:23;1.52;;;0.90;;
76023;SDS011;64719;52.124;6.226;2023-06-14T13:03:50;3.25;;;1.20;;
76023;SDS011;64719;52.124;6.226;2023-06-14T13:06:20;2.10;;;1.15;;
76023;SDS011;64719;52.124;6.226;2023-06-14T13:08:46;6.25;;;1.42;;
76023;SDS011;64719;52.124;6.226;2023-06-14T13:11:13;4.07;;;1.23;;
76023;SDS011;64719;52.124;6.226;2023-06-14T13:13:39;2.95;;;1.30;;
76023;SDS011;64719;52.124;6.226;2023-06-14T13:16:06;2.45;;;1.20;;
76023;SDS011;64719;52.124;6.226;2023-06-14T13:18:34;2.25;;;1.05;;
76023;SDS011;64719;52.124;6.226;2023-06-14T13:21:00;1.80;;;1.20;;
76023;SDS011;64719;52.124;6.226;2023-06-14T13:23:27;1.90;;;1.20;;
76023;SDS011;64719;52.124;6.226;2023-06-14T13:25:53;4.07;;;1.40;;
76023;SDS011;64719;52.124;6.226;2023-06-14T13:28:20;1.90;;;1.35;;
76023;SDS011;64719;52.124;6.226;2023-06-14T13:30:47;3.15;;;1.20;;
76023;SDS011;64719;52.124;6.226;2023-06-14T13:33:13;3.17;;;1.20;;
76023;SDS011;64719;52.124;6.226;2023-06-14T13:35:41;1.98;;;1.20;;
76023;SDS011;64719;52.124;6.226;2023-06-14T13:38:08;2.15;;;1.35;;
76023;SDS011;64719;52.124;6.226;2023-06-14T13:40:35;2.88;;;1.40;;
76023;SDS011;64719;52.124;6.226;2023-06-14T13:43:02;2.70;;;1.40;;
76023;SDS011;64719;52.124;6.226;2023-06-14T13:45:28;3.03;;;1.20;;
76023;SDS011;64719;52.124;6.226;2023-06-14T13:47:55;2.35;;;1.17;;
76023;SDS011;64719;52.124;6.226;2023-06-14T13:50:21;3.60;;;1.30;;
76023;SDS011;64719;52.124;6.226;2023-06-14T13:52:49;2.50;;;1.10;;
76023;SDS011;64719;52.124;6.226;2023-06-14T13:55:15;1.65;;;1.20;;
76023;SDS011;64719;52.124;6.226;2023-06-14T13:57:42;3.92;;;1.33;;
76023;SDS011;64719;52.124;6.226;2023-06-14T14:00:10;2.67;;;1.13;;
76023;SDS011;64719;52.124;6.226;2023-06-14T14:02:37;1.98;;;1.33;;
76023;SDS011;64719;52.124;6.226;2023-06-14T14:05:05;3.88;;;1.20;;
76023;SDS011;64719;52.124;6.226;2023-06-14T14:07:32;2.58;;;1.30;;
76023;SDS011;64719;52.124;6.226;2023-06-14T14:10:01;1.75;;;1.20;;
76023;SDS011;64719;52.124;6.226;2023-06-14T14:12:27;5.00;;;1.52;;
76023;SDS011;64719;52.124;6.226;2023-06-14T14:14:54;2.20;;;1.33;;
76023;SDS011;64719;52.124;6.226;2023-06-14T14:17:21;1.92;;;1.20;;
76023;SDS011;64719;52.124;6.226;2023-06-14T14:19:48;2.38;;;1.38;;
76023;SDS011;64719;52.124;6.226;2023-06-14T14:22:14;2.53;;;1.30;;
76023;SDS011;64719;52.124;6.226;2023-06-14T14:24:41;2.20;;;1.20;;
76023;SDS011;64719;52.124;6.226;2023-06-14T14:27:09;2.72;;;1.38;;
76023;SDS011;64719;52.124;6.226;2023-06-14T14:29:36;2.88;;;1.40;;
76023;SDS011;64719;52.124;6.226;2023-06-14T14:32:03;2.20;;;1.20;;
76023;SDS011;64719;52.124;6.226;2023-06-14T14:36:57;2.45;;;1.50;;
76023;SDS011;64719;52.124;6.226;2023-06-14T14:39:23;2.63;;;1.27;;
76023;SDS011;64719;52.124;6.226;2023-06-14T14:41:50;2.05;;;1.40;;
76023;SDS011;64719;52.124;6.226;2023-06-14T14:44:18;3.25;;;1.42;;
76023;SDS011;64719;52.124;6.226;2023-06-14T14:46:44;3.67;;;1.55;;
76023;SDS011;64719;52.124;6.226;2023-06-14T14:49:11;1.85;;;1.30;;
76023;SDS011;64719;52.124;6.226;2023-06-14T14:51:37;2.50;;;1.55;;
76023;SDS011;64719;52.124;6.226;2023-06-14T14:54:04;6.47;;;1.45;;
76023;SDS011;64719;52.124;6.226;2023-06-14T14:56:31;4.30;;;1.30;;
76023;SDS011;64719;52.124;6.226;2023-06-14T14:59:00;3.97;;;1.52;;
76023;SDS011;64719;52.124;6.226;2023-06-14T15:01:29;2.47;;;1.17;;
76023;SDS011;64719;52.124;6.226;2023-06-14T15:03:55;2.42;;;1.15;;
76023;SDS011;64719;52.124;6.226;2023-06-14T15:06:22;5.22;;;1.38;;
76023;SDS011;64719;52.124;6.226;2023-06-14T15:08:48;1.65;;;1.25;;
76023;SDS011;64719;52.124;6.226;2023-06-14T15:11:15;4.32;;;1.45;;
76023;SDS011;64719;52.124;6.226;2023-06-14T15:13:42;3.30;;;1.55;;
76023;SDS011;64719;52.124;6.226;2023-06-14T15:16:08;2.42;;;1.50;;